sensor_id;sensor_type;location;lat;lon;timestamp;P1;durP1;ratioP1;P2;durP2;ratioP2
14203;SDS011;7185;51.854;6.622;2023-07-02T00:00:43;12.88;;;6.35;;
14203;SDS011;7185;51.854;6.622;2023-07-02T00:03:14;10.30;;;6.55;;
14203;SDS011;7185;51.854;6.622;2023-07-02T00:05:46;11.30;;;6.00;;
14203;SDS011;7185;51.854;6.622;2023-07-02T00:08:18;12.98;;;6.70;;
14203;SDS011;7185;51.854;6.622;2023-07-02T00:10:49;14.98;;;6.55;;
14203;SDS011;7185;51.854;6.622;2023-07-02T00:13:22;8.82;;;5.80;;
14203;SDS011;7185;51.854;6.622;2023-07-02T00:15:54;13.20;;;6.70;;
14203;SDS011;7185;51.854;6.622;2023-07-02T00:18:25;11.85;;;6.13;;
14203;SDS011;7185;51.854;6.622;2023-07-02T00:21:05;13.70;;;7.60;;
14203;SDS011;7185;51.854;6.622;2023-07-02T00:23:36;13.38;;;6.72;;
14203;SDS011;7185;51.854;6.622;2023-07-02T00:26:08;13.82;;;7.15;;
14203;SDS011;7185;51.854;6.622;2023-07-02T00:28:41;15.73;;;6.93;;
14203;SDS011;7185;51.854;6.622;2023-07-02T00:31:13;13.63;;;7.30;;
14203;SDS011;7185;51.854;6.622;2023-07-02T00:33:45;16.85;;;6.68;;
14203;SDS011;7185;51.854;6.622;2023-07-02T00:36:16;13.93;;;7.85;;
14203;SDS011;7185;51.854;6.622;2023-07-02T00:38:48;13.98;;;7.22;;
14203;SDS011;7185;51.854;6.622;2023-07-02T00:41:20;14.23;;;7.07;;
14203;SDS011;7185;51.854;6.622;2023-07-02T00:43:53;14.25;;;6.78;;
14203;SDS011;7185;51.854;6.622;2023-07-02T00:46:27;15.85;;;6.85;;
14203;SDS011;7185;51.854;6.622;2023-07-02T00:48:59;12.68;;;7.15;;
14203;SDS011;7185;51.854;6.622;2023-07-02T00:51:31;15.57;;;7.32;;
14203;SDS011;7185;51.854;6.622;2023-07-02T00:54:03;19.83;;;8.55;;
14203;SDS011;7185;51.854;6.622;2023-07-02T00:56:35;15.27;;;7.07;;
14203;SDS011;7185;51.854;6.622;2023-07-02T00:59:07;15.57;;;7.38;;
14203;SDS011;7185;51.854;6.622;2023-07-02T01:01:39;16.30;;;7.97;;
14203;SDS011;7185;51.854;6.622;2023-07-02T01:04:10;16.15;;;7.53;;
14203;SDS011;7185;51.854;6.622;2023-07-02T01:06:46;15.18;;;7.25;;
14203;SDS011;7185;51.854;6.622;2023-07-02T01:09:39;16.27;;;7.55;;
14203;SDS011;7185;51.854;6.622;2023-07-02T01:12:14;15.77;;;8.63;;
14203;SDS011;7185;51.854;6.622;2023-07-02T01:14:50;20.77;;;8.57;;
14203;SDS011;7185;51.854;6.622;2023-07-02T01:17:22;17.35;;;7.70;;
14203;SDS011;7185;51.854;6.622;2023-07-02T01:19:56;17.70;;;8.38;;
14203;SDS011;7185;51.854;6.622;2023-07-02T01:22:28;17.65;;;8.50;;
14203;SDS011;7185;51.854;6.622;2023-07-02T01:25:00;19.55;;;8.52;;
14203;SDS011;7185;51.854;6.622;2023-07-02T01:27:32;17.85;;;8.27;;
14203;SDS011;7185;51.854;6.622;2023-07-02T01:30:06;18.88;;;8.07;;
14203;SDS011;7185;51.854;6.622;2023-07-02T01:32:37;16.00;;;8.07;;
14203;SDS011;7185;51.854;6.622;2023-07-02T01:35:10;17.58;;;7.97;;
14203;SDS011;7185;51.854;6.622;2023-07-02T01:37:42;13.25;;;7.47;;
14203;SDS011;7185;51.854;6.622;2023-07-02T01:40:13;16.83;;;7.60;;
14203;SDS011;7185;51.854;6.622;2023-07-02T01:42:45;15.45;;;7.43;;
14203;SDS011;7185;51.854;6.622;2023-07-02T01:45:16;18.23;;;8.40;;
14203;SDS011;7185;51.854;6.622;2023-07-02T01:47:48;16.02;;;7.60;;
14203;SDS011;7185;51.854;6.622;2023-07-02T01:50:21;19.48;;;8.40;;
14203;SDS011;7185;51.854;6.622;2023-07-02T01:52:52;14.45;;;8.63;;
14203;SDS011;7185;51.854;6.622;2023-07-02T01:55:24;22.17;;;8.68;;
14203;SDS011;7185;51.854;6.622;2023-07-02T01:57:55;21.15;;;9.20;;
14203;SDS011;7185;51.854;6.622;2023-07-02T02:00:27;21.15;;;9.60;;
14203;SDS011;7185;51.854;6.622;2023-07-02T02:02:58;23.35;;;11.07;;
14203;SDS011;7185;51.854;6.622;2023-07-02T02:05:31;23.50;;;10.98;;
14203;SDS011;7185;51.854;6.622;2023-07-02T02:08:03;23.48;;;10.40;;
14203;SDS011;7185;51.854;6.622;2023-07-02T02:10:34;21.38;;;10.35;;
14203;SDS011;7185;51.854;6.622;2023-07-02T02:13:06;22.60;;;10.07;;
14203;SDS011;7185;51.854;6.622;2023-07-02T02:15:37;21.55;;;8.88;;
14203;SDS011;7185;51.854;6.622;2023-07-02T02:18:09;21.60;;;9.35;;
14203;SDS011;7185;51.854;6.622;2023-07-02T02:20:42;21.65;;;8.73;;
14203;SDS011;7185;51.854;6.622;2023-07-02T02:23:13;19.60;;;8.85;;
14203;SDS011;7185;51.854;6.622;2023-07-02T02:25:45;20.67;;;8.13;;
14203;SDS011;7185;51.854;6.622;2023-07-02T02:28:16;21.27;;;7.68;;
14203;SDS011;7185;51.854;6.622;2023-07-02T02:30:48;24.25;;;8.25;;
14203;SDS011;7185;51.854;6.622;2023-07-02T02:33:20;20.02;;;7.78;;
14203;SDS011;7185;51.854;6.622;2023-07-02T02:35:53;21.58;;;8.65;;
14203;SDS011;7185;51.854;6.622;2023-07-02T02:38:24;22.50;;;8.02;;
14203;SDS011;7185;51.854;6.622;2023-07-02T02:40:56;16.48;;;8.20;;
14203;SDS011;7185;51.854;6.622;2023-07-02T02:43:27;18.50;;;7.90;;
14203;SDS011;7185;51.854;6.622;2023-07-02T02:45:59;20.75;;;8.02;;
14203;SDS011;7185;51.854;6.622;2023-07-02T02:48:30;21.83;;;8.23;;
14203;SDS011;7185;51.854;6.622;2023-07-02T02:51:03;22.50;;;8.15;;
14203;SDS011;7185;51.854;6.622;2023-07-02T02:53:35;17.60;;;7.85;;
14203;SDS011;7185;51.854;6.622;2023-07-02T02:56:06;19.55;;;8.05;;
14203;SDS011;7185;51.854;6.622;2023-07-02T02:58:38;22.83;;;8.43;;
14203;SDS011;7185;51.854;6.622;2023-07-02T03:01:09;19.90;;;8.52;;
14203;SDS011;7185;51.854;6.622;2023-07-02T03:03:41;25.25;;;8.05;;
14203;SDS011;7185;51.854;6.622;2023-07-02T03:06:16;24.90;;;8.90;;
14203;SDS011;7185;51.854;6.622;2023-07-02T03:08:48;24.63;;;7.78;;
14203;SDS011;7185;51.854;6.622;2023-07-02T03:11:20;17.50;;;7.40;;
14203;SDS011;7185;51.854;6.622;2023-07-02T03:13:52;19.02;;;7.80;;
14203;SDS011;7185;51.854;6.622;2023-07-02T03:16:23;19.55;;;7.22;;
14203;SDS011;7185;51.854;6.622;2023-07-02T03:18:54;19.92;;;8.00;;
14203;SDS011;7185;51.854;6.622;2023-07-02T03:21:28;22.58;;;7.82;;
14203;SDS011;7185;51.854;6.622;2023-07-02T03:24:00;20.73;;;7.65;;
14203;SDS011;7185;51.854;6.622;2023-07-02T03:26:32;18.30;;;7.70;;
14203;SDS011;7185;51.854;6.622;2023-07-02T03:29:03;24.05;;;8.32;;
14203;SDS011;7185;51.854;6.622;2023-07-02T03:31:35;19.60;;;7.72;;
14203;SDS011;7185;51.854;6.622;2023-07-02T03:34:06;16.85;;;7.53;;
14203;SDS011;7185;51.854;6.622;2023-07-02T03:36:40;19.05;;;8.13;;
14203;SDS011;7185;51.854;6.622;2023-07-02T03:39:11;18.65;;;7.03;;
14203;SDS011;7185;51.854;6.622;2023-07-02T03:41:43;25.00;;;7.97;;
14203;SDS011;7185;51.854;6.622;2023-07-02T03:44:14;18.83;;;7.05;;
14203;SDS011;7185;51.854;6.622;2023-07-02T03:46:46;21.55;;;7.90;;
14203;SDS011;7185;51.854;6.622;2023-07-02T03:49:17;18.63;;;7.13;;
14203;SDS011;7185;51.854;6.622;2023-07-02T03:51:50;18.50;;;6.47;;
14203;SDS011;7185;51.854;6.622;2023-07-02T03:54:22;19.70;;;7.40;;
14203;SDS011;7185;51.854;6.622;2023-07-02T03:56:54;17.17;;;7.20;;
14203;SDS011;7185;51.854;6.622;2023-07-02T03:59:25;20.83;;;7.53;;
14203;SDS011;7185;51.854;6.622;2023-07-02T04:01:57;17.60;;;7.13;;
14203;SDS011;7185;51.854;6.622;2023-07-02T04:04:28;23.25;;;7.13;;
14203;SDS011;7185;51.854;6.622;2023-07-02T04:07:01;19.92;;;7.38;;
14203;SDS011;7185;51.854;6.622;2023-07-02T04:09:32;21.13;;;6.88;;
14203;SDS011;7185;51.854;6.622;2023-07-02T04:12:04;18.02;;;7.38;;
14203;SDS011;7185;51.854;6.622;2023-07-02T04:14:36;19.55;;;7.32;;
14203;SDS011;7185;51.854;6.622;2023-07-02T04:17:07;20.33;;;6.80;;
14203;SDS011;7185;51.854;6.622;2023-07-02T04:19:39;24.20;;;7.80;;
14203;SDS011;7185;51.854;6.622;2023-07-02T04:22:11;15.40;;;8.10;;
14203;SDS011;7185;51.854;6.622;2023-07-02T04:24:43;16.65;;;7.07;;
14203;SDS011;7185;51.854;6.622;2023-07-02T04:27:14;19.65;;;7.72;;
14203;SDS011;7185;51.854;6.622;2023-07-02T04:29:47;21.00;;;7.18;;
14203;SDS011;7185;51.854;6.622;2023-07-02T04:32:18;19.80;;;6.97;;
14203;SDS011;7185;51.854;6.622;2023-07-02T04:34:50;22.05;;;7.85;;
14203;SDS011;7185;51.854;6.622;2023-07-02T04:37:23;16.63;;;6.43;;
14203;SDS011;7185;51.854;6.622;2023-07-02T04:39:54;24.25;;;7.47;;
14203;SDS011;7185;51.854;6.622;2023-07-02T04:42:26;16.20;;;7.65;;
14203;SDS011;7185;51.854;6.622;2023-07-02T04:44:57;19.20;;;7.43;;
14203;SDS011;7185;51.854;6.622;2023-07-02T04:47:32;17.63;;;6.72;;
14203;SDS011;7185;51.854;6.622;2023-07-02T04:50:04;19.98;;;6.68;;
14203;SDS011;7185;51.854;6.622;2023-07-02T04:52:37;17.73;;;6.38;;
14203;SDS011;7185;51.854;6.622;2023-07-02T04:55:09;16.30;;;6.45;;
14203;SDS011;7185;51.854;6.622;2023-07-02T04:57:40;22.55;;;8.20;;
14203;SDS011;7185;51.854;6.622;2023-07-02T05:00:12;16.92;;;7.30;;
14203;SDS011;7185;51.854;6.622;2023-07-02T05:02:44;22.17;;;7.50;;
14203;SDS011;7185;51.854;6.622;2023-07-02T05:05:16;28.33;;;7.97;;
14203;SDS011;7185;51.854;6.622;2023-07-02T05:07:49;19.20;;;7.97;;
14203;SDS011;7185;51.854;6.622;2023-07-02T05:10:20;18.67;;;7.63;;
14203;SDS011;7185;51.854;6.622;2023-07-02T05:12:52;16.40;;;7.15;;
14203;SDS011;7185;51.854;6.622;2023-07-02T05:15:23;19.98;;;8.15;;
14203;SDS011;7185;51.854;6.622;2023-07-02T05:17:55;23.20;;;8.50;;
14203;SDS011;7185;51.854;6.622;2023-07-02T05:20:26;21.83;;;8.73;;
14203;SDS011;7185;51.854;6.622;2023-07-02T05:22:59;16.23;;;8.13;;
14203;SDS011;7185;51.854;6.622;2023-07-02T05:25:30;17.65;;;7.60;;
14203;SDS011;7185;51.854;6.622;2023-07-02T05:28:02;24.70;;;8.68;;
14203;SDS011;7185;51.854;6.622;2023-07-02T05:30:34;21.50;;;8.00;;
14203;SDS011;7185;51.854;6.622;2023-07-02T05:33:05;20.90;;;7.68;;
14203;SDS011;7185;51.854;6.622;2023-07-02T05:35:37;19.77;;;7.75;;
14203;SDS011;7185;51.854;6.622;2023-07-02T05:38:10;24.90;;;8.80;;
14203;SDS011;7185;51.854;6.622;2023-07-02T05:40:41;24.75;;;8.60;;
14203;SDS011;7185;51.854;6.622;2023-07-02T05:43:12;18.02;;;8.43;;
14203;SDS011;7185;51.854;6.622;2023-07-02T05:45:44;22.50;;;8.48;;
14203;SDS011;7185;51.854;6.622;2023-07-02T05:48:15;22.08;;;8.15;;
14203;SDS011;7185;51.854;6.622;2023-07-02T05:50:47;24.70;;;8.77;;
14203;SDS011;7185;51.854;6.622;2023-07-02T05:53:20;17.92;;;8.73;;
14203;SDS011;7185;51.854;6.622;2023-07-02T05:55:51;22.55;;;8.13;;
14203;SDS011;7185;51.854;6.622;2023-07-02T05:58:23;22.45;;;8.50;;
14203;SDS011;7185;51.854;6.622;2023-07-02T06:00:54;23.67;;;8.85;;
14203;SDS011;7185;51.854;6.622;2023-07-02T06:03:26;20.85;;;8.13;;
14203;SDS011;7185;51.854;6.622;2023-07-02T06:05:57;26.20;;;8.63;;
14203;SDS011;7185;51.854;6.622;2023-07-02T06:08:30;24.40;;;9.40;;
14203;SDS011;7185;51.854;6.622;2023-07-02T06:11:01;24.67;;;8.43;;
14203;SDS011;7185;51.854;6.622;2023-07-02T06:13:33;19.08;;;8.30;;
14203;SDS011;7185;51.854;6.622;2023-07-02T06:16:04;22.20;;;8.98;;
14203;SDS011;7185;51.854;6.622;2023-07-02T06:18:36;20.83;;;8.80;;
14203;SDS011;7185;51.854;6.622;2023-07-02T06:21:07;24.05;;;8.82;;
14203;SDS011;7185;51.854;6.622;2023-07-02T06:23:40;24.33;;;9.13;;
14203;SDS011;7185;51.854;6.622;2023-07-02T06:26:12;18.77;;;7.85;;
14203;SDS011;7185;51.854;6.622;2023-07-02T06:28:44;25.95;;;8.90;;
14203;SDS011;7185;51.854;6.622;2023-07-02T06:31:15;20.17;;;8.25;;
14203;SDS011;7185;51.854;6.622;2023-07-02T06:33:47;23.55;;;8.00;;
14203;SDS011;7185;51.854;6.622;2023-07-02T06:36:18;26.50;;;8.68;;
14203;SDS011;7185;51.854;6.622;2023-07-02T06:38:51;23.25;;;7.93;;
14203;SDS011;7185;51.854;6.622;2023-07-02T06:41:23;22.48;;;8.27;;
14203;SDS011;7185;51.854;6.622;2023-07-02T06:43:54;24.08;;;8.57;;
14203;SDS011;7185;51.854;6.622;2023-07-02T06:46:25;24.33;;;8.93;;
14203;SDS011;7185;51.854;6.622;2023-07-02T06:48:57;21.50;;;7.65;;
14203;SDS011;7185;51.854;6.622;2023-07-02T06:51:28;21.83;;;7.63;;
14203;SDS011;7185;51.854;6.622;2023-07-02T06:54:01;26.25;;;8.68;;
14203;SDS011;7185;51.854;6.622;2023-07-02T06:56:33;22.88;;;8.38;;
14203;SDS011;7185;51.854;6.622;2023-07-02T06:59:04;18.80;;;7.68;;
14203;SDS011;7185;51.854;6.622;2023-07-02T07:01:36;25.38;;;8.57;;
14203;SDS011;7185;51.854;6.622;2023-07-02T07:04:07;24.70;;;8.20;;
14203;SDS011;7185;51.854;6.622;2023-07-02T07:06:39;26.13;;;9.80;;
14203;SDS011;7185;51.854;6.622;2023-07-02T07:12:07;18.58;;;7.60;;
14203;SDS011;7185;51.854;6.622;2023-07-02T07:25:11;23.20;;;7.80;;
14203;SDS011;7185;51.854;6.622;2023-07-02T07:34:33;19.58;;;6.53;;
14203;SDS011;7185;51.854;6.622;2023-07-02T07:39:38;20.52;;;6.20;;
14203;SDS011;7185;51.854;6.622;2023-07-02T07:42:09;19.60;;;6.53;;
14203;SDS011;7185;51.854;6.622;2023-07-02T07:44:41;19.10;;;7.05;;
14203;SDS011;7185;51.854;6.622;2023-07-02T07:47:13;17.45;;;6.43;;
14203;SDS011;7185;51.854;6.622;2023-07-02T07:49:45;18.38;;;6.53;;
14203;SDS011;7185;51.854;6.622;2023-07-02T07:52:16;15.15;;;6.13;;
14203;SDS011;7185;51.854;6.622;2023-07-02T07:54:48;13.93;;;6.38;;
14203;SDS011;7185;51.854;6.622;2023-07-02T07:57:19;16.50;;;6.22;;
14203;SDS011;7185;51.854;6.622;2023-07-02T07:59:51;15.93;;;6.28;;
14203;SDS011;7185;51.854;6.622;2023-07-02T08:02:24;15.60;;;5.85;;
14203;SDS011;7185;51.854;6.622;2023-07-02T08:04:55;18.83;;;6.35;;
14203;SDS011;7185;51.854;6.622;2023-07-02T08:07:27;18.15;;;5.90;;
14203;SDS011;7185;51.854;6.622;2023-07-02T08:09:58;22.40;;;6.38;;
14203;SDS011;7185;51.854;6.622;2023-07-02T08:12:30;15.02;;;6.07;;
14203;SDS011;7185;51.854;6.622;2023-07-02T08:15:01;17.20;;;5.78;;
14203;SDS011;7185;51.854;6.622;2023-07-02T08:17:34;12.30;;;5.18;;
14203;SDS011;7185;51.854;6.622;2023-07-02T08:20:06;13.32;;;5.10;;
14203;SDS011;7185;51.854;6.622;2023-07-02T08:22:40;13.60;;;5.05;;
14203;SDS011;7185;51.854;6.622;2023-07-02T08:25:11;18.42;;;6.22;;
14203;SDS011;7185;51.854;6.622;2023-07-02T08:27:43;13.73;;;5.47;;
14203;SDS011;7185;51.854;6.622;2023-07-02T08:30:14;12.57;;;5.15;;
14203;SDS011;7185;51.854;6.622;2023-07-02T08:32:47;14.35;;;5.75;;
14203;SDS011;7185;51.854;6.622;2023-07-02T08:35:19;13.27;;;5.90;;
14203;SDS011;7185;51.854;6.622;2023-07-02T08:37:50;12.95;;;5.60;;
14203;SDS011;7185;51.854;6.622;2023-07-02T08:40:22;15.10;;;5.70;;
14203;SDS011;7185;51.854;6.622;2023-07-02T08:42:53;18.08;;;6.20;;
14203;SDS011;7185;51.854;6.622;2023-07-02T08:45:26;13.93;;;6.45;;
14203;SDS011;7185;51.854;6.622;2023-07-02T08:47:59;15.85;;;5.90;;
14203;SDS011;7185;51.854;6.622;2023-07-02T08:50:30;20.50;;;6.07;;
14203;SDS011;7185;51.854;6.622;2023-07-02T08:53:02;13.98;;;5.53;;
14203;SDS011;7185;51.854;6.622;2023-07-02T08:55:33;16.45;;;6.05;;
14203;SDS011;7185;51.854;6.622;2023-07-02T08:58:05;17.90;;;6.53;;
14203;SDS011;7185;51.854;6.622;2023-07-02T09:00:36;15.18;;;5.85;;
14203;SDS011;7185;51.854;6.622;2023-07-02T09:03:13;20.40;;;6.45;;
14203;SDS011;7185;51.854;6.622;2023-07-02T09:05:49;13.50;;;5.70;;
14203;SDS011;7185;51.854;6.622;2023-07-02T09:08:24;18.70;;;6.22;;
14203;SDS011;7185;51.854;6.622;2023-07-02T09:11:05;21.33;;;5.95;;
14203;SDS011;7185;51.854;6.622;2023-07-02T09:13:43;15.52;;;6.28;;
14203;SDS011;7185;51.854;6.622;2023-07-02T09:16:21;17.75;;;6.43;;
14203;SDS011;7185;51.854;6.622;2023-07-02T09:18:58;14.73;;;5.78;;
14203;SDS011;7185;51.854;6.622;2023-07-02T09:24:00;17.73;;;5.28;;
14203;SDS011;7185;51.854;6.622;2023-07-02T09:26:43;13.73;;;6.15;;
14203;SDS011;7185;51.854;6.622;2023-07-02T09:29:16;15.15;;;6.00;;
14203;SDS011;7185;51.854;6.622;2023-07-02T09:31:47;15.77;;;5.95;;
14203;SDS011;7185;51.854;6.622;2023-07-02T09:34:25;16.95;;;6.00;;
14203;SDS011;7185;51.854;6.622;2023-07-02T09:36:57;12.98;;;5.65;;
14203;SDS011;7185;51.854;6.622;2023-07-02T09:39:29;16.95;;;7.10;;
14203;SDS011;7185;51.854;6.622;2023-07-02T09:42:02;16.00;;;5.90;;
14203;SDS011;7185;51.854;6.622;2023-07-02T09:44:34;13.45;;;5.75;;
14203;SDS011;7185;51.854;6.622;2023-07-02T09:47:06;10.70;;;5.28;;
14203;SDS011;7185;51.854;6.622;2023-07-02T09:49:39;13.45;;;5.82;;
14203;SDS011;7185;51.854;6.622;2023-07-02T09:52:13;12.90;;;5.20;;
14203;SDS011;7185;51.854;6.622;2023-07-02T09:54:44;14.73;;;6.07;;
14203;SDS011;7185;51.854;6.622;2023-07-02T09:57:16;12.75;;;4.78;;
14203;SDS011;7185;51.854;6.622;2023-07-02T09:59:47;14.80;;;5.50;;
14203;SDS011;7185;51.854;6.622;2023-07-02T10:02:20;13.70;;;5.70;;
14203;SDS011;7185;51.854;6.622;2023-07-02T10:04:53;13.07;;;4.93;;
14203;SDS011;7185;51.854;6.622;2023-07-02T10:07:26;14.50;;;5.03;;
14203;SDS011;7185;51.854;6.622;2023-07-02T10:09:57;15.43;;;5.80;;
14203;SDS011;7185;51.854;6.622;2023-07-02T10:12:29;14.57;;;5.97;;
14203;SDS011;7185;51.854;6.622;2023-07-02T10:15:01;14.13;;;5.65;;
14203;SDS011;7185;51.854;6.622;2023-07-02T10:17:34;13.68;;;5.63;;
14203;SDS011;7185;51.854;6.622;2023-07-02T10:20:09;16.23;;;6.07;;
14203;SDS011;7185;51.854;6.622;2023-07-02T10:22:42;12.63;;;5.65;;
14203;SDS011;7185;51.854;6.622;2023-07-02T10:25:23;18.65;;;6.18;;
14203;SDS011;7185;51.854;6.622;2023-07-02T10:27:55;13.63;;;6.03;;
14203;SDS011;7185;51.854;6.622;2023-07-02T10:30:30;13.55;;;5.55;;
14203;SDS011;7185;51.854;6.622;2023-07-02T10:33:09;13.80;;;6.03;;
14203;SDS011;7185;51.854;6.622;2023-07-02T10:35:43;16.85;;;5.15;;
14203;SDS011;7185;51.854;6.622;2023-07-02T10:38:18;13.98;;;5.68;;
14203;SDS011;7185;51.854;6.622;2023-07-02T10:40:53;14.85;;;5.43;;
14203;SDS011;7185;51.854;6.622;2023-07-02T10:43:25;14.40;;;5.77;;
14203;SDS011;7185;51.854;6.622;2023-07-02T10:45:58;12.90;;;5.53;;
14203;SDS011;7185;51.854;6.622;2023-07-02T10:48:30;14.82;;;5.50;;
14203;SDS011;7185;51.854;6.622;2023-07-02T10:51:12;11.50;;;5.47;;
14203;SDS011;7185;51.854;6.622;2023-07-02T10:53:43;12.90;;;5.28;;
14203;SDS011;7185;51.854;6.622;2023-07-02T10:56:15;12.43;;;5.70;;
14203;SDS011;7185;51.854;6.622;2023-07-02T10:58:47;13.30;;;5.13;;
14203;SDS011;7185;51.854;6.622;2023-07-02T11:01:22;11.50;;;5.47;;
14203;SDS011;7185;51.854;6.622;2023-07-02T11:03:57;14.65;;;5.43;;
14203;SDS011;7185;51.854;6.622;2023-07-02T11:06:31;14.13;;;5.32;;
14203;SDS011;7185;51.854;6.622;2023-07-02T11:09:03;14.85;;;5.65;;
14203;SDS011;7185;51.854;6.622;2023-07-02T11:11:34;16.63;;;6.07;;
14203;SDS011;7185;51.854;6.622;2023-07-02T11:14:06;15.05;;;6.07;;
14203;SDS011;7185;51.854;6.622;2023-07-02T11:16:37;11.80;;;5.22;;
14203;SDS011;7185;51.854;6.622;2023-07-02T11:19:10;15.00;;;5.13;;
14203;SDS011;7185;51.854;6.622;2023-07-02T11:21:50;14.60;;;6.00;;
14203;SDS011;7185;51.854;6.622;2023-07-02T11:24:30;13.20;;;5.50;;
14203;SDS011;7185;51.854;6.622;2023-07-02T11:27:02;12.70;;;5.20;;
14203;SDS011;7185;51.854;6.622;2023-07-02T11:29:35;11.02;;;5.30;;
14203;SDS011;7185;51.854;6.622;2023-07-02T11:32:07;12.77;;;5.47;;
14203;SDS011;7185;51.854;6.622;2023-07-02T11:34:40;16.27;;;6.35;;
14203;SDS011;7185;51.854;6.622;2023-07-02T11:37:14;12.75;;;5.30;;
14203;SDS011;7185;51.854;6.622;2023-07-02T11:39:46;16.00;;;6.15;;
14203;SDS011;7185;51.854;6.622;2023-07-02T11:42:18;14.73;;;5.70;;
14203;SDS011;7185;51.854;6.622;2023-07-02T11:44:57;16.85;;;5.90;;
14203;SDS011;7185;51.854;6.622;2023-07-02T11:47:30;12.18;;;5.60;;
14203;SDS011;7185;51.854;6.622;2023-07-02T11:50:02;14.75;;;5.25;;
14203;SDS011;7185;51.854;6.622;2023-07-02T11:52:35;12.48;;;5.72;;
14203;SDS011;7185;51.854;6.622;2023-07-02T11:55:07;16.48;;;6.20;;
14203;SDS011;7185;51.854;6.622;2023-07-02T11:57:39;12.15;;;4.90;;
14203;SDS011;7185;51.854;6.622;2023-07-02T12:00:11;13.05;;;6.03;;
14203;SDS011;7185;51.854;6.622;2023-07-02T12:02:43;11.57;;;5.15;;
14203;SDS011;7185;51.854;6.622;2023-07-02T12:05:15;14.07;;;5.30;;
14203;SDS011;7185;51.854;6.622;2023-07-02T12:07:52;11.48;;;5.43;;
14203;SDS011;7185;51.854;6.622;2023-07-02T12:10:25;10.73;;;5.10;;
14203;SDS011;7185;51.854;6.622;2023-07-02T12:12:56;13.10;;;5.95;;
14203;SDS011;7185;51.854;6.622;2023-07-02T12:15:28;11.15;;;5.32;;
14203;SDS011;7185;51.854;6.622;2023-07-02T12:18:01;12.55;;;5.38;;
14203;SDS011;7185;51.854;6.622;2023-07-02T12:20:32;15.65;;;5.50;;
14203;SDS011;7185;51.854;6.622;2023-07-02T12:23:06;13.32;;;5.68;;
14203;SDS011;7185;51.854;6.622;2023-07-02T12:25:38;12.05;;;5.28;;
14203;SDS011;7185;51.854;6.622;2023-07-02T12:28:09;10.95;;;5.28;;
14203;SDS011;7185;51.854;6.622;2023-07-02T12:30:41;16.35;;;5.57;;
14203;SDS011;7185;51.854;6.622;2023-07-02T12:33:17;12.18;;;5.63;;
14203;SDS011;7185;51.854;6.622;2023-07-02T12:35:50;11.32;;;5.53;;
14203;SDS011;7185;51.854;6.622;2023-07-02T12:38:25;12.73;;;5.80;;
14203;SDS011;7185;51.854;6.622;2023-07-02T12:40:57;12.93;;;5.22;;
14203;SDS011;7185;51.854;6.622;2023-07-02T12:43:29;13.98;;;5.80;;
14203;SDS011;7185;51.854;6.622;2023-07-02T12:46:01;14.10;;;5.90;;
14203;SDS011;7185;51.854;6.622;2023-07-02T12:48:33;13.98;;;5.40;;
14203;SDS011;7185;51.854;6.622;2023-07-02T12:51:06;13.95;;;5.78;;
14203;SDS011;7185;51.854;6.622;2023-07-02T12:53:39;11.70;;;5.15;;
14203;SDS011;7185;51.854;6.622;2023-07-02T12:56:14;15.23;;;5.28;;
14203;SDS011;7185;51.854;6.622;2023-07-02T12:58:46;13.63;;;5.38;;
14203;SDS011;7185;51.854;6.622;2023-07-02T13:01:17;12.25;;;4.88;;
14203;SDS011;7185;51.854;6.622;2023-07-02T13:03:49;9.70;;;4.47;;
14203;SDS011;7185;51.854;6.622;2023-07-02T13:06:23;12.35;;;5.15;;
14203;SDS011;7185;51.854;6.622;2023-07-02T13:08:57;15.80;;;5.15;;
14203;SDS011;7185;51.854;6.622;2023-07-02T13:11:29;11.40;;;5.03;;
14203;SDS011;7185;51.854;6.622;2023-07-02T13:14:01;10.05;;;5.18;;
14203;SDS011;7185;51.854;6.622;2023-07-02T13:16:33;13.23;;;4.95;;
14203;SDS011;7185;51.854;6.622;2023-07-02T13:19:05;14.38;;;5.60;;
14203;SDS011;7185;51.854;6.622;2023-07-02T13:21:37;12.57;;;4.93;;
14203;SDS011;7185;51.854;6.622;2023-07-02T13:24:10;14.50;;;5.05;;
14203;SDS011;7185;51.854;6.622;2023-07-02T13:26:42;10.05;;;4.75;;
14203;SDS011;7185;51.854;6.622;2023-07-02T13:29:14;10.02;;;4.88;;
14203;SDS011;7185;51.854;6.622;2023-07-02T13:31:47;10.55;;;3.85;;
14203;SDS011;7185;51.854;6.622;2023-07-02T13:34:19;8.73;;;4.00;;
14203;SDS011;7185;51.854;6.622;2023-07-02T13:36:50;11.40;;;4.43;;
14203;SDS011;7185;51.854;6.622;2023-07-02T13:39:23;8.68;;;4.30;;
14203;SDS011;7185;51.854;6.622;2023-07-02T13:41:55;12.48;;;3.40;;
14203;SDS011;7185;51.854;6.622;2023-07-02T13:44:26;9.23;;;3.70;;
14203;SDS011;7185;51.854;6.622;2023-07-02T13:46:58;7.60;;;3.40;;
14203;SDS011;7185;51.854;6.622;2023-07-02T13:49:29;9.07;;;4.15;;
14203;SDS011;7185;51.854;6.622;2023-07-02T13:52:01;8.63;;;3.40;;
14203;SDS011;7185;51.854;6.622;2023-07-02T13:54:34;10.15;;;3.85;;
14203;SDS011;7185;51.854;6.622;2023-07-02T13:57:06;7.78;;;3.28;;
14203;SDS011;7185;51.854;6.622;2023-07-02T13:59:39;9.05;;;3.65;;
14203;SDS011;7185;51.854;6.622;2023-07-02T14:02:10;13.27;;;3.80;;
14203;SDS011;7185;51.854;6.622;2023-07-02T14:04:41;9.52;;;3.58;;
14203;SDS011;7185;51.854;6.622;2023-07-02T14:07:13;8.60;;;3.90;;
14203;SDS011;7185;51.854;6.622;2023-07-02T14:09:45;10.50;;;4.35;;
14203;SDS011;7185;51.854;6.622;2023-07-02T14:12:19;8.88;;;4.05;;
14203;SDS011;7185;51.854;6.622;2023-07-02T14:14:52;9.30;;;3.70;;
14203;SDS011;7185;51.854;6.622;2023-07-02T14:17:24;9.48;;;3.88;;
14203;SDS011;7185;51.854;6.622;2023-07-02T14:20:00;9.63;;;3.95;;
14203;SDS011;7185;51.854;6.622;2023-07-02T14:22:32;8.32;;;3.50;;
14203;SDS011;7185;51.854;6.622;2023-07-02T14:25:09;8.05;;;3.90;;
14203;SDS011;7185;51.854;6.622;2023-07-02T14:27:43;9.70;;;4.10;;
14203;SDS011;7185;51.854;6.622;2023-07-02T14:30:18;10.27;;;4.25;;
14203;SDS011;7185;51.854;6.622;2023-07-02T14:32:51;13.82;;;4.22;;
14203;SDS011;7185;51.854;6.622;2023-07-02T14:35:23;8.55;;;3.70;;
14203;SDS011;7185;51.854;6.622;2023-07-02T14:38:05;8.10;;;3.70;;
14203;SDS011;7185;51.854;6.622;2023-07-02T14:40:54;10.65;;;3.90;;
14203;SDS011;7185;51.854;6.622;2023-07-02T14:43:27;9.10;;;3.63;;
14203;SDS011;7185;51.854;6.622;2023-07-02T14:46:08;10.23;;;3.90;;
14203;SDS011;7185;51.854;6.622;2023-07-02T14:48:39;8.32;;;3.70;;
14203;SDS011;7185;51.854;6.622;2023-07-02T14:51:11;10.18;;;3.78;;
14203;SDS011;7185;51.854;6.622;2023-07-02T14:53:43;10.20;;;4.32;;
14203;SDS011;7185;51.854;6.622;2023-07-02T14:56:14;11.70;;;3.50;;
14203;SDS011;7185;51.854;6.622;2023-07-02T14:58:45;9.18;;;3.63;;
14203;SDS011;7185;51.854;6.622;2023-07-02T15:01:19;12.77;;;4.18;;
14203;SDS011;7185;51.854;6.622;2023-07-02T15:03:51;9.07;;;3.83;;
14203;SDS011;7185;51.854;6.622;2023-07-02T15:06:22;8.75;;;3.17;;
14203;SDS011;7185;51.854;6.622;2023-07-02T15:08:54;7.10;;;3.40;;
14203;SDS011;7185;51.854;6.622;2023-07-02T15:11:25;10.48;;;4.05;;
14203;SDS011;7185;51.854;6.622;2023-07-02T15:13:58;8.60;;;3.97;;
14203;SDS011;7185;51.854;6.622;2023-07-02T15:16:34;12.73;;;3.75;;
14203;SDS011;7185;51.854;6.622;2023-07-02T15:19:05;8.73;;;3.55;;
14203;SDS011;7185;51.854;6.622;2023-07-02T15:21:37;7.15;;;3.92;;
14203;SDS011;7185;51.854;6.622;2023-07-02T15:24:08;10.75;;;3.90;;
14203;SDS011;7185;51.854;6.622;2023-07-02T15:26:42;14.02;;;3.47;;
14203;SDS011;7185;51.854;6.622;2023-07-02T15:29:14;8.43;;;3.38;;
14203;SDS011;7185;51.854;6.622;2023-07-02T15:31:47;11.20;;;4.10;;
14203;SDS011;7185;51.854;6.622;2023-07-02T15:34:18;9.55;;;4.03;;
14203;SDS011;7185;51.854;6.622;2023-07-02T15:36:51;10.23;;;3.53;;
14203;SDS011;7185;51.854;6.622;2023-07-02T15:39:22;9.82;;;3.85;;
14203;SDS011;7185;51.854;6.622;2023-07-02T15:41:55;8.05;;;3.65;;
14203;SDS011;7185;51.854;6.622;2023-07-02T15:44:26;9.40;;;3.63;;